TRAVEL WEATHER INFO - USA

NOAA Site Locator - Search for Station Information

CITY Forecast Link METAR Identifier Last Updated Temperature Dew Point Humidity Pressure Wind Direction Wind Speed Wind Gust Weather Rain/hr Google Maps
Albuqueque WEATHER KABQ 05/21/2020 04:52 57.2 -2.2 9 29.99 SW 6 6 Clear --- Albuquerque, NM Map
Anchorage WEATHER PAED 05/21/2020 04:56 48.2 42.8 81 29.96 NW 6 6 Broken Clouds --- Anchorage, AK Map
Atlanta WEATHER KATL 05/21/2020 04:52 53.6 51.8 94 29.96 NNE 5 5 0.00 ATLANTA, GA Map
Birmingham WEATHER KBHM 05/21/2020 05:38 57.2 53.6 88 29.97 E 3 3 Few Clouds --- Birmingham, AL Map
Boston WEATHER KBOS 05/21/2020 04:54 46.4 33.8 61 30.41 SW 6 6 Few Clouds --- BOSTON, MA Map
Cheyenne WEATHER KCYS 05/21/2020 04:53 48.2 23.0 37 29.99 N 11 11 Scattered Clouds --- Cheyenne, WY Map
Chicago O'Hare WEATHER KORD 05/21/2020 05:25 57.2 50.0 77 30.10 E 6 6 Overcast --- CHICAGO, IL Map
Colorado Springs WEATHER KCOS 05/21/2020 04:54 55.4 21.2 26 30.00 NNW 16 16 Clear --- Colo. Springs, CO Map
Dallas WEATHER KADS 05/21/2020 05:35 69.8 66.2 88 29.80 ESE 9 9 Scattered Clouds 0.03 Dallas, TX Map
Denver WEATHER KDEN 05/21/2020 04:53 48.2 33.8 57 29.97 NW 5 5 Clear --- DENVER, CO Map
Detroit WEATHER KDET 05/21/2020 04:53 51.8 44.6 76 30.20 ENE 3 3 Few Clouds --- Detroit, MI Map
Dover WEATHER KDOV 05/21/2020 04:56 48.2 48.2 100 30.33 NE 11 11 Scattered Clouds --- DOVER, DE Map
Fort Lauderdale WEATHER KFXE 05/21/2020 04:53 75.2 69.8 83 29.95 N 3 3 Clear --- Fort Lauderdale, FL Map
Honolulu WEATHER PHNL 05/21/2020 04:53 75.2 62.6 65 30.10 NE 10 17 Few Clouds --- Honolulu, HI Map
JFK Airport WEATHER KJFK 05/21/2020 04:51 42.8 39.2 87 30.42 NE 4 4 Broken Clouds --- JFK Airport, NYC Map
Key West WEATHER KEYW 05/21/2020 04:53 82.4 73.4 74 29.95 SE 4 4 Clear --- Key West, FL Map
Los Angeles WEATHER KLAX 05/21/2020 04:53 59.0 51.8 77 29.96 S 3 3 Few Clouds --- Los Angeles, CA Map
Louisville WEATHER KSDF 05/21/2020 05:32 55.4 51.8 88 30.02 NE 5 5 Broken Clouds --- Louisville, KY Map
Minneapolis WEATHER KMSP 05/21/2020 04:53 59.0 55.4 88 30.07 ESE 4 4 Clear --- Minneapolis, MN Map
Morgantown WEATHER KMGW 05/21/2020 04:53 53.6 42.8 67 30.20 ESE 11 23 Broken Clouds --- Morgantown, WV Map
New Orleans WEATHER KNEW 05/21/2020 04:53 75.2 69.8 83 29.86 SE 6 6 Clear --- New Orleans, LA Map
New York City WEATHER KNYC 05/21/2020 04:51 46.4 39.2 76 30.44 N --- --- Clear --- New York, NY Map
Omaha WEATHER KOMA 05/21/2020 04:52 60.8 55.4 82 29.98 SE 10 10 Overcast --- Omaha, NE Map
Philadelphia WEATHER KPHL 05/21/2020 04:54 46.4 42.8 87 30.38 ENE 9 9 Scattered Clouds --- Philadelphia, PA Map
Pittsburgh WEATHER KPIT 05/21/2020 04:51 51.8 33.8 50 30.21 E 12 12 Broken Clouds --- Pittsburgh, PA Map
Seattle WEATHER KSEA 05/21/2020 04:53 51.8 42.8 71 30.03 S 12 12 Overcast --- Seattle, WA Map
San Francisco WEATHER KSFO 05/21/2020 04:56 53.6 48.2 82 30.08 W 8 8 --- San Francisco, CA Map
Washington DC WEATHER KDCA 05/21/2020 04:52 51.8 44.6 76 30.33 NE 6 6 Overcast --- Washington, DC Map